Copalis Crossing, Washington
Current Conditions -  °F | °C
As of 10:53 PM on Wednesday 22 Oct 2014 (Local Time) from KHQM Reporting Station
Clear Clear  
Wind Chill: 56°   Ceiling: Unl
Heat Index: 56°   Visibility: 7mi
Dew Point: 53°   Wind: 9mph
Humidity: 90%   Direction: 200°SSW
Pressure: 29.67"   Gusts: NA
Location:  47.11°N, 124.07°W
Report Text: KHQM 230553Z AUTO 20008KT 7SM CLR 13/12 A2967 RMK AO2 SLP051 60028 T01330117 10144 20128 53028
Loading
Personal Weather Stations






























Interactive Weather Map
Tropical Storm Tracking
New forecast layout! Learn more

10-Day Weather Forecast

Advertisements
Track Severe Weather on mobile